Windfall, Indiana
Current Conditions -  °F | °C
As of 7:35 AM on Monday 22 Dec 2014 (Local Time) from KOKK Reporting Station
Overcast Overcast  
Wind Chill: 20°   Ceiling: 10000
Heat Index: 28°   Visibility: 6mi
Dew Point: 25°   Wind: 9mph
Humidity: 86%   Direction: 130°SE
Pressure: 29.98"   Gusts: NA
Location:  40.36°N, 85.96°W
Report Text: KOKK 221235Z AUTO 13008KT 6SM SCT075 OVC100 M02/M04 A2998 RMK AO1
Loading
Personal Weather Stations






























Interactive Weather Map New forecast layout! Learn more

10-Day Weather Forecast

Advertisements
Track Severe Weather on mobile